Willowbrook, Canada
Current Conditions -  °F | °C
As of 9:00 AM on Friday 24 Oct 2014 (Local Time) from CYQV Reporting Station
Clear Clear  
Wind Chill: 52°   Ceiling: Unl
Heat Index: 52°   Visibility: 9mi
Dew Point: 39°   Wind: 20mph
Humidity: 62%   Direction: 230°SW
Pressure: 29.59"   Gusts: NA
Location:  51.2°N, 102.8°W
Report Text: CYQV 241500Z AUTO 23017KT 9SM CLR 11/04 A2959 RMK SLP030 DENSITY ALT 1900FT
Loading
Personal Weather Stations






























Interactive Weather Map
Tropical Storm Tracking
New forecast layout! Learn more

10-Day Weather Forecast

Advertisements
Track Severe Weather on mobile